sensor_id;sensor_type;location;lat;lon;timestamp;pressure;altitude;pressure_sealevel;temperature;humidity
63343;BME280;49465;57.664;39.686;2024-02-15T00:01:47;102531.84;;;-10.21;40.68
63343;BME280;49465;57.664;39.686;2024-02-15T00:04:16;102535.69;;;-10.27;41.29
63343;BME280;49465;57.664;39.686;2024-02-15T00:06:46;102536.03;;;-10.21;40.46
63343;BME280;49465;57.664;39.686;2024-02-15T00:09:18;102525.09;;;-10.20;40.70
63343;BME280;49465;57.664;39.686;2024-02-15T00:11:51;102534.28;;;-10.22;41.57
63343;BME280;49465;57.664;39.686;2024-02-15T00:14:20;102531.13;;;-10.18;40.77
63343;BME280;49465;57.664;39.686;2024-02-15T00:16:46;102524.13;;;-10.22;40.72
63343;BME280;49465;57.664;39.686;2024-02-15T00:19:16;102521.16;;;-10.15;41.00
63343;BME280;49465;57.664;39.686;2024-02-15T00:21:50;102526.69;;;-10.37;40.42
63343;BME280;49465;57.664;39.686;2024-02-15T00:24:19;102523.72;;;-10.30;40.61
63343;BME280;49465;57.664;39.686;2024-02-15T00:26:54;102526.34;;;-10.28;41.39
63343;BME280;49465;57.664;39.686;2024-02-15T00:29:23;102537.06;;;-10.18;41.27
63343;BME280;49465;57.664;39.686;2024-02-15T00:31:55;102531.84;;;-10.21;41.16
63343;BME280;49465;57.664;39.686;2024-02-15T00:34:39;102535.25;;;-10.20;41.65
63343;BME280;49465;57.664;39.686;2024-02-15T00:37:11;102532.19;;;-10.29;41.33
63343;BME280;49465;57.664;39.686;2024-02-15T00:39:45;102529.31;;;-10.21;40.79
63343;BME280;49465;57.664;39.686;2024-02-15T00:42:20;102527.94;;;-10.30;41.16
63343;BME280;49465;57.664;39.686;2024-02-15T00:44:50;102530.03;;;-10.38;41.19
63343;BME280;49465;57.664;39.686;2024-02-15T00:47:22;102535.72;;;-10.42;41.10
63343;BME280;49465;57.664;39.686;2024-02-15T00:49:53;102536.47;;;-10.28;41.24
63343;BME280;49465;57.664;39.686;2024-02-15T00:52:28;102536.94;;;-10.36;41.76
63343;BME280;49465;57.664;39.686;2024-02-15T00:55:11;102532.53;;;-10.23;40.68
63343;BME280;49465;57.664;39.686;2024-02-15T00:57:45;102536.56;;;-10.27;40.88
63343;BME280;49465;57.664;39.686;2024-02-15T01:00:20;102537.44;;;-10.26;41.07
63343;BME280;49465;57.664;39.686;2024-02-15T01:02:52;102548.16;;;-10.32;40.65
63343;BME280;49465;57.664;39.686;2024-02-15T01:05:22;102535.03;;;-10.40;41.33
63343;BME280;49465;57.664;39.686;2024-02-15T01:07:53;102536.78;;;-10.39;40.72
63343;BME280;49465;57.664;39.686;2024-02-15T01:10:24;102532.28;;;-10.28;40.86
63343;BME280;49465;57.664;39.686;2024-02-15T01:12:56;102538.22;;;-10.27;40.61
63343;BME280;49465;57.664;39.686;2024-02-15T01:15:27;102540.28;;;-10.37;40.89
63343;BME280;49465;57.664;39.686;2024-02-15T01:18:04;102535.97;;;-10.38;40.32
63343;BME280;49465;57.664;39.686;2024-02-15T01:20:33;102524.16;;;-10.37;41.27
63343;BME280;49465;57.664;39.686;2024-02-15T01:23:04;102532.28;;;-10.43;41.22
63343;BME280;49465;57.664;39.686;2024-02-15T01:25:33;102535.28;;;-10.35;40.78
63343;BME280;49465;57.664;39.686;2024-02-15T01:28:03;102532.03;;;-10.47;39.99
63343;BME280;49465;57.664;39.686;2024-02-15T01:30:35;102537.81;;;-10.35;41.21
63343;BME280;49465;57.664;39.686;2024-02-15T01:33:07;102540.38;;;-10.50;40.79
63343;BME280;49465;57.664;39.686;2024-02-15T01:35:42;102539.13;;;-10.42;40.79
63343;BME280;49465;57.664;39.686;2024-02-15T01:38:15;102545.69;;;-10.30;41.47
63343;BME280;49465;57.664;39.686;2024-02-15T01:40:41;102538.44;;;-10.39;40.82
63343;BME280;49465;57.664;39.686;2024-02-15T01:43:14;102533.72;;;-10.48;40.44
63343;BME280;49465;57.664;39.686;2024-02-15T01:45:46;102533.63;;;-10.49;40.99
63343;BME280;49465;57.664;39.686;2024-02-15T01:48:18;102526.25;;;-10.45;40.46
63343;BME280;49465;57.664;39.686;2024-02-15T01:50:50;102525.16;;;-10.50;40.58
63343;BME280;49465;57.664;39.686;2024-02-15T01:53:26;102526.25;;;-10.45;40.48
63343;BME280;49465;57.664;39.686;2024-02-15T01:56:05;102524.88;;;-10.55;41.48
63343;BME280;49465;57.664;39.686;2024-02-15T01:58:33;102516.81;;;-10.62;41.74
63343;BME280;49465;57.664;39.686;2024-02-15T02:01:03;102512.63;;;-10.47;41.48
63343;BME280;49465;57.664;39.686;2024-02-15T02:03:38;102518.16;;;-10.54;41.21
63343;BME280;49465;57.664;39.686;2024-02-15T02:06:11;102515.34;;;-10.44;40.65
63343;BME280;49465;57.664;39.686;2024-02-15T02:08:45;102511.03;;;-10.45;41.55
63343;BME280;49465;57.664;39.686;2024-02-15T02:11:15;102515.44;;;-10.57;40.78
63343;BME280;49465;57.664;39.686;2024-02-15T02:13:53;102508.34;;;-10.78;40.58
63343;BME280;49465;57.664;39.686;2024-02-15T02:16:29;102511.06;;;-10.60;41.72
63343;BME280;49465;57.664;39.686;2024-02-15T02:19:03;102523.91;;;-10.71;41.31
63343;BME280;49465;57.664;39.686;2024-02-15T02:21:39;102520.16;;;-10.63;40.79
63343;BME280;49465;57.664;39.686;2024-02-15T02:24:20;102513.88;;;-10.70;41.11
63343;BME280;49465;57.664;39.686;2024-02-15T02:26:55;102508.59;;;-10.73;41.21
63343;BME280;49465;57.664;39.686;2024-02-15T02:29:27;102504.84;;;-10.65;41.27
63343;BME280;49465;57.664;39.686;2024-02-15T02:32:04;102510.19;;;-10.60;40.59
63343;BME280;49465;57.664;39.686;2024-02-15T02:34:37;102501.53;;;-10.64;40.85
63343;BME280;49465;57.664;39.686;2024-02-15T02:37:09;102508.44;;;-10.61;41.14
63343;BME280;49465;57.664;39.686;2024-02-15T02:39:42;102507.00;;;-10.86;41.04
63343;BME280;49465;57.664;39.686;2024-02-15T02:42:14;102501.44;;;-10.65;41.73
63343;BME280;49465;57.664;39.686;2024-02-15T02:44:43;102503.72;;;-10.70;41.47
63343;BME280;49465;57.664;39.686;2024-02-15T02:47:20;102495.47;;;-10.81;41.20
63343;BME280;49465;57.664;39.686;2024-02-15T02:49:54;102496.44;;;-10.79;41.68
63343;BME280;49465;57.664;39.686;2024-02-15T02:52:23;102496.69;;;-10.74;40.60
63343;BME280;49465;57.664;39.686;2024-02-15T02:55:01;102492.50;;;-10.59;41.73
63343;BME280;49465;57.664;39.686;2024-02-15T02:57:36;102502.66;;;-10.59;40.61
63343;BME280;49465;57.664;39.686;2024-02-15T03:00:14;102501.19;;;-10.70;40.86
63343;BME280;49465;57.664;39.686;2024-02-15T03:02:49;102504.13;;;-10.62;40.89
63343;BME280;49465;57.664;39.686;2024-02-15T03:05:31;102497.34;;;-10.63;40.98
63343;BME280;49465;57.664;39.686;2024-02-15T03:08:00;102501.44;;;-10.65;41.17
63343;BME280;49465;57.664;39.686;2024-02-15T03:10:29;102505.06;;;-10.90;41.09
63343;BME280;49465;57.664;39.686;2024-02-15T03:12:58;102508.94;;;-10.67;41.25
63343;BME280;49465;57.664;39.686;2024-02-15T03:15:24;102510.88;;;-10.63;41.30
63343;BME280;49465;57.664;39.686;2024-02-15T03:17:56;102504.69;;;-10.68;41.44
63343;BME280;49465;57.664;39.686;2024-02-15T03:20:23;102510.53;;;-10.69;40.84
63343;BME280;49465;57.664;39.686;2024-02-15T03:23:02;102515.44;;;-10.57;41.50
63343;BME280;49465;57.664;39.686;2024-02-15T03:25:29;102516.47;;;-10.53;40.71
63343;BME280;49465;57.664;39.686;2024-02-15T03:27:59;102514.66;;;-10.56;40.52
63343;BME280;49465;57.664;39.686;2024-02-15T03:30:31;102509.16;;;-10.64;41.04
63343;BME280;49465;57.664;39.686;2024-02-15T03:33:01;102510.34;;;-10.57;41.21
63343;BME280;49465;57.664;39.686;2024-02-15T03:35:37;102515.44;;;-10.57;41.51
63343;BME280;49465;57.664;39.686;2024-02-15T03:38:06;102522.16;;;-10.72;40.95
63343;BME280;49465;57.664;39.686;2024-02-15T03:40:35;102528.94;;;-10.86;40.95
63343;BME280;49465;57.664;39.686;2024-02-15T03:43:03;102522.81;;;-10.90;41.07
63343;BME280;49465;57.664;39.686;2024-02-15T03:45:38;102518.91;;;-10.85;40.73
63343;BME280;49465;57.664;39.686;2024-02-15T03:48:07;102516.00;;;-10.91;40.77
63343;BME280;49465;57.664;39.686;2024-02-15T03:50:34;102515.75;;;-10.81;41.65
63343;BME280;49465;57.664;39.686;2024-02-15T03:53:03;102512.09;;;-10.71;41.79
63343;BME280;49465;57.664;39.686;2024-02-15T03:55:30;102514.38;;;-10.76;41.86
63343;BME280;49465;57.664;39.686;2024-02-15T03:57:58;102510.69;;;-10.81;41.48
63343;BME280;49465;57.664;39.686;2024-02-15T04:00:30;102507.84;;;-10.72;41.46
63343;BME280;49465;57.664;39.686;2024-02-15T04:03:00;102515.16;;;-10.77;41.02
63343;BME280;49465;57.664;39.686;2024-02-15T04:05:32;102512.19;;;-10.69;40.91
63343;BME280;49465;57.664;39.686;2024-02-15T04:08:01;102509.81;;;-10.81;40.91
63343;BME280;49465;57.664;39.686;2024-02-15T04:10:36;102512.25;;;-10.83;41.41
63343;BME280;49465;57.664;39.686;2024-02-15T04:13:11;102508.25;;;-10.79;41.79
63343;BME280;49465;57.664;39.686;2024-02-15T04:15:43;102496.19;;;-10.83;41.79
63343;BME280;49465;57.664;39.686;2024-02-15T04:18:13;102502.91;;;-10.84;40.85
63343;BME280;49465;57.664;39.686;2024-02-15T04:20:40;102496.44;;;-10.79;41.25
63343;BME280;49465;57.664;39.686;2024-02-15T04:23:12;102497.94;;;-10.67;41.50
63343;BME280;49465;57.664;39.686;2024-02-15T04:25:39;102496.19;;;-10.68;41.52
63343;BME280;49465;57.664;39.686;2024-02-15T04:28:09;102496.97;;;-10.69;41.67
63343;BME280;49465;57.664;39.686;2024-02-15T04:30:36;102492.88;;;-10.67;41.22
63343;BME280;49465;57.664;39.686;2024-02-15T04:33:09;102502.72;;;-10.87;41.56
63343;BME280;49465;57.664;39.686;2024-02-15T04:35:38;102498.03;;;-10.81;41.73
63343;BME280;49465;57.664;39.686;2024-02-15T04:38:08;102494.53;;;-10.83;41.21
63343;BME280;49465;57.664;39.686;2024-02-15T04:40:35;102498.97;;;-10.93;41.62
63343;BME280;49465;57.664;39.686;2024-02-15T04:43:05;102504.06;;;-10.79;42.03
63343;BME280;49465;57.664;39.686;2024-02-15T04:45:32;102502.09;;;-10.98;41.57
63343;BME280;49465;57.664;39.686;2024-02-15T04:48:05;102502.19;;;-10.96;41.79
63343;BME280;49465;57.664;39.686;2024-02-15T04:50:35;102506.84;;;-10.89;41.65
63343;BME280;49465;57.664;39.686;2024-02-15T04:53:02;102504.66;;;-10.83;41.88
63343;BME280;49465;57.664;39.686;2024-02-15T04:55:37;102506.25;;;-10.70;41.80
63343;BME280;49465;57.664;39.686;2024-02-15T04:58:04;102515.56;;;-10.84;41.90
63343;BME280;49465;57.664;39.686;2024-02-15T05:00:34;102510.69;;;-10.81;41.90
63343;BME280;49465;57.664;39.686;2024-02-15T05:03:07;102509.03;;;-10.80;42.09
63343;BME280;49465;57.664;39.686;2024-02-15T05:05:36;102511.75;;;-10.77;41.25
63343;BME280;49465;57.664;39.686;2024-02-15T05:08:08;102493.66;;;-10.68;41.91
63343;BME280;49465;57.664;39.686;2024-02-15T05:10:43;102506.16;;;-10.57;41.89
63343;BME280;49465;57.664;39.686;2024-02-15T05:13:12;102510.19;;;-10.75;41.97
63343;BME280;49465;57.664;39.686;2024-02-15T05:15:38;102511.03;;;-10.75;41.21
63343;BME280;49465;57.664;39.686;2024-02-15T05:18:08;102506.94;;;-10.72;41.56
63343;BME280;49465;57.664;39.686;2024-02-15T05:20:34;102512.47;;;-10.80;41.40
63343;BME280;49465;57.664;39.686;2024-02-15T05:23:03;102518.75;;;-10.73;41.46
63343;BME280;49465;57.664;39.686;2024-02-15T05:25:35;102517.88;;;-10.73;41.24
63343;BME280;49465;57.664;39.686;2024-02-15T05:28:04;102523.09;;;-10.70;41.12
63343;BME280;49465;57.664;39.686;2024-02-15T05:30:41;102525.72;;;-10.84;42.34
63343;BME280;49465;57.664;39.686;2024-02-15T05:33:13;102522.91;;;-10.88;41.75
63343;BME280;49465;57.664;39.686;2024-02-15T05:35:43;102522.88;;;-10.60;42.05
63343;BME280;49465;57.664;39.686;2024-02-15T05:38:12;102516.03;;;-10.76;41.78
63343;BME280;49465;57.664;39.686;2024-02-15T05:40:41;102514.22;;;-10.64;41.64
63343;BME280;49465;57.664;39.686;2024-02-15T05:43:08;102521.66;;;-10.52;41.28
63343;BME280;49465;57.664;39.686;2024-02-15T05:45:34;102525.25;;;-10.48;41.84
63343;BME280;49465;57.664;39.686;2024-02-15T05:48:04;102524.97;;;-10.53;41.61
63343;BME280;49465;57.664;39.686;2024-02-15T05:50:42;102521.03;;;-10.48;41.33
63343;BME280;49465;57.664;39.686;2024-02-15T05:53:13;102517.25;;;-10.55;41.62
63343;BME280;49465;57.664;39.686;2024-02-15T05:55:42;102516.81;;;-10.47;41.15
63343;BME280;49465;57.664;39.686;2024-02-15T05:58:13;102513.69;;;-10.43;41.24
63343;BME280;49465;57.664;39.686;2024-02-15T06:00:40;102512.00;;;-10.43;41.26
63343;BME280;49465;57.664;39.686;2024-02-15T06:03:12;102519.28;;;-10.49;42.13
63343;BME280;49465;57.664;39.686;2024-02-15T06:05:39;102520.16;;;-10.33;41.42
63343;BME280;49465;57.664;39.686;2024-02-15T06:08:06;102520.72;;;-10.23;41.69
63343;BME280;49465;57.664;39.686;2024-02-15T06:10:36;102521.50;;;-10.24;41.20
63343;BME280;49465;57.664;39.686;2024-02-15T06:13:02;102526.34;;;-10.28;41.79
63343;BME280;49465;57.664;39.686;2024-02-15T06:15:31;102519.91;;;-10.38;41.76
63343;BME280;49465;57.664;39.686;2024-02-15T06:17:58;102519.19;;;-10.36;41.39
63343;BME280;49465;57.664;39.686;2024-02-15T06:20:25;102515.88;;;-10.35;42.05
63343;BME280;49465;57.664;39.686;2024-02-15T06:22:54;102522.38;;;-10.23;41.15
63343;BME280;49465;57.664;39.686;2024-02-15T06:25:21;102518.50;;;-10.78;41.54
63343;BME280;49465;57.664;39.686;2024-02-15T06:27:51;102521.25;;;-11.03;41.37
63343;BME280;49465;57.664;39.686;2024-02-15T06:30:26;102518.44;;;-11.77;42.58
63343;BME280;49465;57.664;39.686;2024-02-15T06:33:11;102526.84;;;-12.05;43.62
63343;BME280;49465;57.664;39.686;2024-02-15T06:36:08;102528.34;;;-11.67;43.13
63343;BME280;49465;57.664;39.686;2024-02-15T06:38:59;102538.19;;;-11.30;42.56
63343;BME280;49465;57.664;39.686;2024-02-15T06:41:51;102522.00;;;-11.19;42.95
63343;BME280;49465;57.664;39.686;2024-02-15T06:44:30;102525.88;;;-11.52;42.89
63343;BME280;49465;57.664;39.686;2024-02-15T06:47:10;102534.44;;;-11.50;42.69
63343;BME280;49465;57.664;39.686;2024-02-15T06:49:47;102539.88;;;-11.44;42.56
63343;BME280;49465;57.664;39.686;2024-02-15T06:52:26;102542.81;;;-12.06;43.14
63343;BME280;49465;57.664;39.686;2024-02-15T06:55:05;102551.44;;;-11.34;43.69
63343;BME280;49465;57.664;39.686;2024-02-15T06:57:37;102553.53;;;-11.55;43.12
63343;BME280;49465;57.664;39.686;2024-02-15T07:00:15;102547.50;;;-11.16;43.60
63343;BME280;49465;57.664;39.686;2024-02-15T07:02:47;102550.25;;;-11.26;43.30
63343;BME280;49465;57.664;39.686;2024-02-15T07:05:23;102543.84;;;-11.34;42.59
63343;BME280;49465;57.664;39.686;2024-02-15T07:08:05;102551.56;;;-11.32;42.70
63343;BME280;49465;57.664;39.686;2024-02-15T07:10:47;102551.31;;;-11.64;43.44
63343;BME280;49465;57.664;39.686;2024-02-15T07:13:29;102549.53;;;-11.38;43.24
63343;BME280;49465;57.664;39.686;2024-02-15T07:16:05;102552.03;;;-11.25;43.75
63343;BME280;49465;57.664;39.686;2024-02-15T07:18:48;102547.63;;;-10.99;42.91
63343;BME280;49465;57.664;39.686;2024-02-15T07:21:26;102560.31;;;-10.99;43.29
63343;BME280;49465;57.664;39.686;2024-02-15T07:24:06;102558.53;;;-10.72;42.66
63343;BME280;49465;57.664;39.686;2024-02-15T07:26:42;102558.78;;;-10.67;42.66
63343;BME280;49465;57.664;39.686;2024-02-15T07:29:19;102555.63;;;-10.78;42.92
63343;BME280;49465;57.664;39.686;2024-02-15T07:31:59;102563.50;;;-10.73;43.21
63343;BME280;49465;57.664;39.686;2024-02-15T07:34:40;102568.00;;;-10.40;42.92
63343;BME280;49465;57.664;39.686;2024-02-15T07:37:19;102569.81;;;-10.37;42.61
63343;BME280;49465;57.664;39.686;2024-02-15T07:39:56;102565.53;;;-10.53;42.20
63343;BME280;49465;57.664;39.686;2024-02-15T07:42:31;102559.91;;;-10.62;42.52
63343;BME280;49465;57.664;39.686;2024-02-15T07:45:05;102561.78;;;-10.45;42.25
63343;BME280;49465;57.664;39.686;2024-02-15T07:47:45;102572.00;;;-10.43;42.50
63343;BME280;49465;57.664;39.686;2024-02-15T07:50:20;102574.50;;;-10.14;42.59
63343;BME280;49465;57.664;39.686;2024-02-15T07:52:54;102572.59;;;-10.18;42.56
63343;BME280;49465;57.664;39.686;2024-02-15T07:55:32;102572.69;;;-10.16;42.02
63343;BME280;49465;57.664;39.686;2024-02-15T07:58:13;102572.59;;;-10.18;42.07
63343;BME280;49465;57.664;39.686;2024-02-15T08:00:51;102568.19;;;-9.90;42.73
63343;BME280;49465;57.664;39.686;2024-02-15T08:03:29;102571.53;;;-10.21;42.31
63343;BME280;49465;57.664;39.686;2024-02-15T08:06:12;102576.81;;;-10.18;41.89
63343;BME280;49465;57.664;39.686;2024-02-15T08:08:55;102582.41;;;-10.09;41.84
63343;BME280;49465;57.664;39.686;2024-02-15T08:11:32;102577.41;;;-9.92;42.83
63343;BME280;49465;57.664;39.686;2024-02-15T08:14:11;102577.56;;;-9.89;42.49
63343;BME280;49465;57.664;39.686;2024-02-15T08:16:49;102581.69;;;-10.06;41.79
63343;BME280;49465;57.664;39.686;2024-02-15T08:19:29;102579.53;;;-10.15;42.28
63343;BME280;49465;57.664;39.686;2024-02-15T08:22:06;102593.25;;;-9.97;41.48
63343;BME280;49465;57.664;39.686;2024-02-15T08:24:47;102580.03;;;-10.06;42.14
63343;BME280;49465;57.664;39.686;2024-02-15T08:27:22;102587.78;;;-9.88;41.94
63343;BME280;49465;57.664;39.686;2024-02-15T08:30:02;102583.31;;;-9.62;42.22
63343;BME280;49465;57.664;39.686;2024-02-15T08:32:41;102576.84;;;-9.72;42.41
63343;BME280;49465;57.664;39.686;2024-02-15T08:35:16;102589.38;;;-9.75;41.65
63343;BME280;49465;57.664;39.686;2024-02-15T08:37:57;102583.56;;;-9.72;41.57
63343;BME280;49465;57.664;39.686;2024-02-15T08:40:23;102579.94;;;-9.92;42.23
63343;BME280;49465;57.664;39.686;2024-02-15T08:43:01;102582.03;;;-9.85;41.65
63343;BME280;49465;57.664;39.686;2024-02-15T08:45:40;102568.00;;;-9.79;41.42
63343;BME280;49465;57.664;39.686;2024-02-15T08:48:25;102574.63;;;-9.66;40.55
63343;BME280;49465;57.664;39.686;2024-02-15T08:50:59;102563.53;;;-9.83;41.29
63343;BME280;49465;57.664;39.686;2024-02-15T08:53:34;102567.88;;;-10.11;41.30
63343;BME280;49465;57.664;39.686;2024-02-15T08:56:13;102567.69;;;-9.53;41.61
63343;BME280;49465;57.664;39.686;2024-02-15T08:58:55;102561.88;;;-9.51;41.12
63343;BME280;49465;57.664;39.686;2024-02-15T09:01:31;102552.81;;;-9.93;40.31
63343;BME280;49465;57.664;39.686;2024-02-15T09:04:00;102549.88;;;-9.70;42.17
63343;BME280;49465;57.664;39.686;2024-02-15T09:06:37;102546.63;;;-9.82;40.86
63343;BME280;49465;57.664;39.686;2024-02-15T09:09:20;102548.84;;;-9.57;41.35
63343;BME280;49465;57.664;39.686;2024-02-15T09:11:52;102552.56;;;-9.67;40.69
63343;BME280;49465;57.664;39.686;2024-02-15T09:14:27;102558.91;;;-9.27;41.44
63343;BME280;49465;57.664;39.686;2024-02-15T09:17:00;102555.94;;;-9.51;41.08
63343;BME280;49465;57.664;39.686;2024-02-15T09:19:33;102560.13;;;-9.21;40.54
63343;BME280;49465;57.664;39.686;2024-02-15T09:22:36;102567.41;;;-9.10;40.97
63343;BME280;49465;57.664;39.686;2024-02-15T09:25:18;102560.56;;;-9.11;40.76
63343;BME280;49465;57.664;39.686;2024-02-15T09:28:00;102559.13;;;-9.39;40.70
63343;BME280;49465;57.664;39.686;2024-02-15T09:30:40;102557.69;;;-9.50;40.57
63343;BME280;49465;57.664;39.686;2024-02-15T09:33:15;102555.63;;;-9.72;40.85
63343;BME280;49465;57.664;39.686;2024-02-15T09:35:57;102550.72;;;-9.38;40.90
63343;BME280;49465;57.664;39.686;2024-02-15T09:38:37;102546.38;;;-9.72;42.02
63343;BME280;49465;57.664;39.686;2024-02-15T09:41:18;102543.44;;;-9.63;42.52
63343;BME280;49465;57.664;39.686;2024-02-15T09:43:58;102542.25;;;-9.70;42.58
63343;BME280;49465;57.664;39.686;2024-02-15T09:46:34;102546.41;;;-9.56;42.99
63343;BME280;49465;57.664;39.686;2024-02-15T09:49:23;102542.88;;;-9.26;43.40
63343;BME280;49465;57.664;39.686;2024-02-15T09:52:19;102554.53;;;-9.13;42.76
63343;BME280;49465;57.664;39.686;2024-02-15T09:55:00;102548.03;;;-8.76;42.91
63343;BME280;49465;57.664;39.686;2024-02-15T09:57:43;102544.56;;;-9.27;43.37
63343;BME280;49465;57.664;39.686;2024-02-15T10:00:18;102542.78;;;-9.28;44.42
63343;BME280;49465;57.664;39.686;2024-02-15T10:02:59;102537.22;;;-9.37;44.56
63343;BME280;49465;57.664;39.686;2024-02-15T10:05:31;102530.72;;;-8.99;44.26
63343;BME280;49465;57.664;39.686;2024-02-15T10:08:18;102537.28;;;-9.52;45.07
63343;BME280;49465;57.664;39.686;2024-02-15T10:11:08;102538.56;;;-9.75;46.45
63343;BME280;49465;57.664;39.686;2024-02-15T10:13:42;102526.72;;;-9.60;45.88
63343;BME280;49465;57.664;39.686;2024-02-15T10:16:22;102521.13;;;-9.05;45.12
63343;BME280;49465;57.664;39.686;2024-02-15T10:19:09;102528.63;;;-8.90;44.86
63343;BME280;49465;57.664;39.686;2024-02-15T10:21:38;102527.16;;;-9.19;45.69
63343;BME280;49465;57.664;39.686;2024-02-15T10:24:17;102518.47;;;-9.56;45.96
63343;BME280;49465;57.664;39.686;2024-02-15T10:26:49;102528.94;;;-9.33;46.43
63343;BME280;49465;57.664;39.686;2024-02-15T10:29:23;102520.06;;;-9.41;46.67
63343;BME280;49465;57.664;39.686;2024-02-15T10:31:54;102524.03;;;-9.46;46.58
63343;BME280;49465;57.664;39.686;2024-02-15T10:34:27;102522.63;;;-9.25;46.18
63343;BME280;49465;57.664;39.686;2024-02-15T10:37:17;102522.44;;;-9.11;46.40
63343;BME280;49465;57.664;39.686;2024-02-15T10:40:04;102524.50;;;-9.53;46.99
63343;BME280;49465;57.664;39.686;2024-02-15T10:42:41;102520.38;;;-9.02;46.36
63343;BME280;49465;57.664;39.686;2024-02-15T10:45:15;102521.66;;;-9.43;46.27
63343;BME280;49465;57.664;39.686;2024-02-15T10:47:47;102526.75;;;-9.10;46.61
63343;BME280;49465;57.664;39.686;2024-02-15T10:50:19;102524.13;;;-9.12;45.85
63343;BME280;49465;57.664;39.686;2024-02-15T10:53:28;102520.94;;;-9.08;46.11
63343;BME280;49465;57.664;39.686;2024-02-15T10:56:18;102502.38;;;-8.72;45.90
63343;BME280;49465;57.664;39.686;2024-02-15T10:59:18;102509.13;;;-9.07;46.09
63343;BME280;49465;57.664;39.686;2024-02-15T11:01:58;102504.22;;;-9.21;46.13
63343;BME280;49465;57.664;39.686;2024-02-15T11:04:35;102510.06;;;-8.55;45.27
63343;BME280;49465;57.664;39.686;2024-02-15T11:07:08;102512.81;;;-8.32;45.27
63343;BME280;49465;57.664;39.686;2024-02-15T11:09:42;102512.94;;;-8.65;45.01
63343;BME280;49465;57.664;39.686;2024-02-15T11:12:17;102516.13;;;-8.69;45.23
63343;BME280;49465;57.664;39.686;2024-02-15T11:14:49;102519.13;;;-9.10;46.56
63343;BME280;49465;57.664;39.686;2024-02-15T11:17:44;102512.59;;;-8.89;46.96
63343;BME280;49465;57.664;39.686;2024-02-15T11:23:06;102509.53;;;-9.32;47.10
63343;BME280;49465;57.664;39.686;2024-02-15T11:25:34;102509.84;;;-8.59;46.70
63343;BME280;49465;57.664;39.686;2024-02-15T11:30:54;102494.22;;;-8.49;46.21
63343;BME280;49465;57.664;39.686;2024-02-15T11:33:36;102492.28;;;-8.71;46.64
63343;BME280;49465;57.664;39.686;2024-02-15T11:36:14;102490.94;;;-9.15;47.76
63343;BME280;49465;57.664;39.686;2024-02-15T11:38:54;102482.56;;;-8.80;46.55
63343;BME280;49465;57.664;39.686;2024-02-15T11:41:32;102481.53;;;-8.83;47.33
63343;BME280;49465;57.664;39.686;2024-02-15T11:44:00;102497.56;;;-8.84;48.25
63343;BME280;49465;57.664;39.686;2024-02-15T11:46:35;102493.16;;;-9.05;47.64
63343;BME280;49465;57.664;39.686;2024-02-15T11:49:14;102497.50;;;-9.02;48.39
63343;BME280;49465;57.664;39.686;2024-02-15T11:51:56;102496.41;;;-8.91;47.93
63343;BME280;49465;57.664;39.686;2024-02-15T11:54:39;102482.47;;;-8.98;47.21
63343;BME280;49465;57.664;39.686;2024-02-15T11:57:22;102487.66;;;-8.96;48.52
63343;BME280;49465;57.664;39.686;2024-02-15T12:00:05;102487.81;;;-8.93;48.23
63343;BME280;49465;57.664;39.686;2024-02-15T12:03:08;102495.94;;;-9.17;49.05
63343;BME280;49465;57.664;39.686;2024-02-15T12:06:05;102489.25;;;-9.15;48.40
63343;BME280;49465;57.664;39.686;2024-02-15T12:08:55;102491.47;;;-9.04;49.29
63343;BME280;49465;57.664;39.686;2024-02-15T12:11:43;102490.81;;;-8.84;50.26
63343;BME280;49465;57.664;39.686;2024-02-15T12:14:33;102489.63;;;-8.38;50.04
63343;BME280;49465;57.664;39.686;2024-02-15T12:17:24;102494.25;;;-9.16;50.38
63343;BME280;49465;57.664;39.686;2024-02-15T12:20:13;102491.06;;;-8.61;50.31
63343;BME280;49465;57.664;39.686;2024-02-15T12:22:53;102485.75;;;-8.84;50.84
63343;BME280;49465;57.664;39.686;2024-02-15T12:25:23;102481.06;;;-8.58;50.56
63343;BME280;49465;57.664;39.686;2024-02-15T12:27:56;102473.72;;;-9.21;49.87
63343;BME280;49465;57.664;39.686;2024-02-15T12:30:36;102476.47;;;-8.65;50.50
63343;BME280;49465;57.664;39.686;2024-02-15T12:33:13;102478.97;;;-8.31;50.01
63343;BME280;49465;57.664;39.686;2024-02-15T12:35:51;102470.78;;;-8.78;49.39
63343;BME280;49465;57.664;39.686;2024-02-15T12:38:22;102478.28;;;-8.97;50.46
63343;BME280;49465;57.664;39.686;2024-02-15T12:40:55;102476.53;;;-8.98;50.50
63343;BME280;49465;57.664;39.686;2024-02-15T12:43:26;102464.22;;;-8.72;50.68
63343;BME280;49465;57.664;39.686;2024-02-15T12:45:56;102459.88;;;-8.75;50.57
63343;BME280;49465;57.664;39.686;2024-02-15T12:48:29;102457.28;;;-8.59;49.60
63343;BME280;49465;57.664;39.686;2024-02-15T12:51:13;102453.94;;;-8.92;50.50
63343;BME280;49465;57.664;39.686;2024-02-15T12:53:48;102457.00;;;-8.47;49.26
63343;BME280;49465;57.664;39.686;2024-02-15T12:56:26;102462.81;;;-8.67;49.51
63343;BME280;49465;57.664;39.686;2024-02-15T12:58:58;102452.09;;;-8.78;49.85
63343;BME280;49465;57.664;39.686;2024-02-15T13:01:31;102457.06;;;-8.09;48.80
63343;BME280;49465;57.664;39.686;2024-02-15T13:04:03;102458.47;;;-8.52;49.03
63343;BME280;49465;57.664;39.686;2024-02-15T13:06:37;102461.41;;;-8.79;49.88
63343;BME280;49465;57.664;39.686;2024-02-15T13:09:07;102464.63;;;-8.47;49.32
63343;BME280;49465;57.664;39.686;2024-02-15T13:11:46;102455.59;;;-8.40;48.92
63343;BME280;49465;57.664;39.686;2024-02-15T13:14:18;102454.16;;;-9.05;50.02
63343;BME280;49465;57.664;39.686;2024-02-15T13:16:49;102448.44;;;-9.18;51.18
63343;BME280;49465;57.664;39.686;2024-02-15T13:19:22;102457.78;;;-9.00;50.63